Time;durP1;ratioP1;P1;durP2;ratioP2;P2;SDS_P1;SDS_P2;PMS_P1;PMS_P2;Temp;Humidity;BMP_temperature;BMP_pressure;BME280_temperature;BME280_humidity;BME280_pressure;Samples;Min_cycle;Max_cycle;Signal;HPM_P1;HPM_P2
2023/01/19 00:02:26;;;;;;;18.37;9.37;;;;;0.60;99754.00;;;;10377692;28;20305;-75
2023/01/19 00:07:29;;;;;;;16.00;9.67;;;;;0.70;99753.00;;;;10378133;28;20195;-75
2023/01/19 00:12:30;;;;;;;15.73;8.67;;;;;0.70;99757.00;;;;10431526;28;20723;-75
2023/01/19 00:17:32;;;;;;;16.27;8.87;;;;;0.70;99762.00;;;;10399496;28;20688;-75
2023/01/19 00:22:34;;;;;;;15.30;9.43;;;;;0.70;99762.00;;;;10393891;28;20203;-75
2023/01/19 00:27:36;;;;;;;15.53;10.03;;;;;0.70;99759.00;;;;10410110;28;20198;-75
2023/01/19 00:32:38;;;;;;;16.13;8.47;;;;;0.70;99764.00;;;;10409669;28;20186;-75
2023/01/19 00:37:40;;;;;;;20.27;9.83;;;;;0.70;99774.00;;;;10393298;28;20198;-75
2023/01/19 00:42:47;;;;;;;14.83;8.67;;;;;0.80;99759.00;;;;10409998;28;20238;-75
2023/01/19 00:47:55;;;;;;;14.57;8.37;;;;;0.80;99755.00;;;;10415540;28;20194;-75
2023/01/19 00:53:01;;;;;;;16.30;9.00;;;;;0.80;99767.00;;;;10418087;28;20182;-75
2023/01/19 00:58:05;;;;;;;13.20;7.73;;;;;0.70;99769.00;;;;10417232;28;20202;-75
2023/01/19 01:03:07;;;;;;;16.57;9.77;;;;;0.70;99769.00;;;;10416768;28;20565;-75
2023/01/19 01:08:09;;;;;;;18.47;9.27;;;;;0.60;99782.00;;;;10451004;28;20641;-75
2023/01/19 01:13:11;;;;;;;18.87;8.50;;;;;0.60;99778.00;;;;10416266;28;20430;-75
2023/01/19 01:18:27;;;;;;;11.87;7.67;;;;;0.60;99782.00;;;;10393049;28;20207;-75
2023/01/19 01:23:29;;;;;;;13.57;7.50;;;;;0.60;99787.00;;;;10375220;28;20199;-75
2023/01/19 01:28:31;;;;;;;18.33;8.60;;;;;0.50;99777.00;;;;10391495;28;20258;-75
2023/01/19 01:33:33;;;;;;;15.07;7.93;;;;;0.50;99781.00;;;;10431645;28;20202;-75
2023/01/19 01:38:42;;;;;;;15.43;8.63;;;;;0.50;99791.00;;;;10415997;28;20218;-74
2023/01/19 01:43:57;;;;;;;15.50;9.03;;;;;0.40;99794.00;;;;10416538;28;20740;-75
2023/01/19 01:49:14;;;;;;;18.50;9.70;;;;;0.40;99793.00;;;;10416512;28;20186;-75
2023/01/19 01:54:21;;;;;;;16.33;8.80;;;;;0.30;99807.00;;;;10415085;28;20198;-75
2023/01/19 01:59:37;;;;;;;17.87;9.90;;;;;0.30;99790.00;;;;10407430;28;20654;-75
2023/01/19 02:04:46;;;;;;;15.03;9.43;;;;;0.30;99789.00;;;;10391022;28;20178;-75
2023/01/19 02:15:19;;;;;;;15.30;9.47;;;;;0.20;99801.00;;;;10406626;28;20212;-75
2023/01/19 02:20:26;;;;;;;18.07;9.50;;;;;0.20;99803.00;;;;10415157;28;20214;-75
2023/01/19 02:25:28;;;;;;;17.03;9.90;;;;;0.20;99795.00;;;;10417992;28;20202;-75
2023/01/19 02:30:31;;;;;;;20.77;9.07;;;;;0.30;99813.00;;;;10439563;28;20190;-75
2023/01/19 02:35:38;;;;;;;16.13;9.07;;;;;0.30;99808.00;;;;10422438;28;20198;-75
2023/01/19 02:40:44;;;;;;;19.67;8.77;;;;;0.40;99813.00;;;;10438881;28;20661;-75
2023/01/19 02:45:47;;;;;;;16.80;8.30;;;;;0.50;99822.00;;;;10461366;28;20254;-75
2023/01/19 02:50:52;;;;;;;20.77;9.43;;;;;0.50;99812.00;;;;10447459;28;20327;-76
2023/01/19 02:56:14;;;;;;;15.40;9.50;;;;;0.60;99820.00;;;;10435645;28;20206;-76
2023/01/19 03:02:16;;;;;;;15.80;8.97;;;;;0.60;99832.00;;;;10363583;28;20223;-75
2023/01/19 03:07:33;;;;;;;15.80;8.93;;;;;0.60;99836.00;;;;10335189;28;20194;-75
2023/01/19 03:13:03;;;;;;;16.33;9.07;;;;;0.70;99850.00;;;;10380731;28;20895;-75
2023/01/19 03:18:08;;;;;;;16.80;9.13;;;;;0.70;99860.00;;;;10457402;28;20208;-75
2023/01/19 03:23:13;;;;;;;20.13;8.57;;;;;0.70;99860.00;;;;10396976;28;20669;-75
2023/01/19 03:28:18;;;;;;;21.67;9.97;;;;;0.80;99875.00;;;;10413194;28;20206;-75
2023/01/19 03:33:28;;;;;;;23.13;10.20;;;;;0.90;99895.00;;;;10418958;28;20281;-75
2023/01/19 03:38:34;;;;;;;17.60;9.70;;;;;0.90;99870.00;;;;10397315;28;20191;-74
2023/01/19 03:43:39;;;;;;;13.70;8.80;;;;;0.70;99863.00;;;;10407206;28;20212;-76
2023/01/19 03:48:40;;;;;;;19.73;9.30;;;;;0.50;99874.00;;;;10457200;28;20205;-76
2023/01/19 03:53:42;;;;;;;18.30;9.20;;;;;0.40;99891.00;;;;10381203;28;20229;-76
2023/01/19 03:58:45;;;;;;;15.23;9.23;;;;;0.40;99871.00;;;;10411096;28;20202;-75
2023/01/19 04:03:49;;;;;;;13.40;8.53;;;;;0.40;99857.00;;;;10377722;28;20293;-75
2023/01/19 04:08:51;;;;;;;16.73;9.50;;;;;0.40;99871.00;;;;10409807;28;20781;-76
2023/01/19 04:13:59;;;;;;;17.93;9.77;;;;;0.40;99877.00;;;;10399141;28;20288;-76
2023/01/19 04:19:02;;;;;;;17.87;8.27;;;;;0.40;99876.00;;;;10450269;28;20250;-76
2023/01/19 04:24:05;;;;;;;16.57;9.93;;;;;0.40;99872.00;;;;10433049;28;20673;-76
2023/01/19 04:29:08;;;;;;;18.00;8.83;;;;;0.40;99872.00;;;;10421898;28;20198;-75
2023/01/19 04:34:10;;;;;;;21.43;10.47;;;;;0.40;99884.00;;;;10408822;28;20198;-76
2023/01/19 04:39:11;;;;;;;17.80;9.93;;;;;0.40;99866.00;;;;10407387;28;20211;-75
2023/01/19 04:44:13;;;;;;;19.83;9.90;;;;;0.30;99873.00;;;;10387743;28;20215;-75
2023/01/19 04:49:15;;;;;;;21.13;10.33;;;;;0.30;99873.00;;;;10362770;28;20429;-75
2023/01/19 04:54:17;;;;;;;18.23;10.47;;;;;0.30;99866.00;;;;10331566;28;20207;-75
2023/01/19 04:59:19;;;;;;;18.40;9.93;;;;;0.30;99877.00;;;;10363585;28;20202;-75
2023/01/19 05:04:21;;;;;;;22.27;11.57;;;;;0.30;99888.00;;;;10331271;28;20250;-76
2023/01/19 05:09:23;;;;;;;22.13;11.73;;;;;0.20;99893.00;;;;10347338;28;20206;-76
2023/01/19 05:14:25;;;;;;;19.33;9.83;;;;;0.20;99889.00;;;;10367679;28;20218;-76
2023/01/19 05:19:27;;;;;;;22.97;11.03;;;;;0.20;99890.00;;;;10364339;28;20241;-76
2023/01/19 05:24:29;;;;;;;24.00;13.37;;;;;0.20;99900.00;;;;10371170;28;20227;-75
2023/01/19 05:29:31;;;;;;;25.90;13.03;;;;;0.20;99888.00;;;;10379073;28;20198;-76
2023/01/19 05:34:33;;;;;;;29.47;12.70;;;;;0.10;99889.00;;;;10367436;28;20207;-75
2023/01/19 05:39:35;;;;;;;28.47;13.47;;;;;0.10;99895.00;;;;10369143;28;20197;-76
2023/01/19 05:44:37;;;;;;;26.47;12.77;;;;;0.10;99906.00;;;;10414995;28;20306;-75
2023/01/19 05:49:39;;;;;;;24.67;12.43;;;;;0.10;99902.00;;;;10382281;28;20191;-75
2023/01/19 05:54:41;;;;;;;24.63;11.27;;;;;0.10;99904.00;;;;10355782;28;20201;-75
2023/01/19 05:59:43;;;;;;;29.90;12.13;;;;;0.00;99904.00;;;;10375370;28;20205;-75
2023/01/19 06:04:47;;;;;;;27.23;12.57;;;;;0.00;99911.00;;;;10369419;28;20211;-75
2023/01/19 06:09:51;;;;;;;26.07;12.20;;;;;0.10;99910.00;;;;10368274;28;20222;-75
2023/01/19 06:14:55;;;;;;;27.20;13.00;;;;;0.00;99915.00;;;;10323896;28;20218;-75
2023/01/19 06:19:57;;;;;;;23.67;12.60;;;;;0.00;99911.00;;;;10361929;28;21003;-75
2023/01/19 06:24:59;;;;;;;25.40;13.40;;;;;-0.10;99915.00;;;;10360263;28;20309;-75
2023/01/19 06:30:03;;;;;;;23.30;11.23;;;;;-0.10;99920.00;;;;10356073;28;20291;-75
2023/01/19 06:35:06;;;;;;;24.00;11.83;;;;;-0.10;99920.00;;;;10357592;28;20205;-75
2023/01/19 06:40:09;;;;;;;25.97;11.73;;;;;-0.10;99924.00;;;;10378801;28;20273;-75
2023/01/19 06:45:12;;;;;;;28.97;12.70;;;;;-0.10;99943.00;;;;10346821;28;20207;-75
2023/01/19 06:50:14;;;;;;;26.07;12.33;;;;;0.00;99940.00;;;;10360191;28;20242;-75
2023/01/19 06:55:16;;;;;;;21.80;10.20;;;;;0.10;99951.00;;;;10382757;28;20202;-74
2023/01/19 07:00:21;;;;;;;25.57;11.20;;;;;0.10;99958.00;;;;10399211;28;20218;-74
2023/01/19 07:05:23;;;;;;;28.23;12.93;;;;;0.10;99962.00;;;;10408386;28;20653;-74
2023/01/19 07:10:25;;;;;;;28.30;12.33;;;;;0.10;99970.00;;;;10382748;28;20214;-75
2023/01/19 07:15:47;;;;;;;27.67;12.43;;;;;0.10;99965.00;;;;10372001;28;20202;-74
2023/01/19 07:20:49;;;;;;;24.87;11.87;;;;;0.10;99971.00;;;;10370247;28;20255;-75
2023/01/19 07:25:50;;;;;;;22.97;12.67;;;;;0.10;99973.00;;;;10391202;28;20261;-75
2023/01/19 07:30:54;;;;;;;27.97;12.57;;;;;0.10;99980.00;;;;10380962;28;20253;-75
2023/01/19 07:35:56;;;;;;;25.60;12.67;;;;;0.10;99983.00;;;;10392219;28;20211;-75
2023/01/19 07:41:03;;;;;;;28.53;13.80;;;;;0.10;99990.00;;;;10383866;28;20260;-75
2023/01/19 07:46:06;;;;;;;26.60;13.03;;;;;0.20;99996.00;;;;10386712;28;20195;-74
2023/01/19 07:51:11;;;;;;;33.37;13.40;;;;;0.10;100004.00;;;;10369378;28;20203;-75
2023/01/19 07:56:13;;;;;;;29.83;13.07;;;;;0.10;100010.00;;;;10386030;28;20202;-75
2023/01/19 08:01:15;;;;;;;26.00;11.53;;;;;0.20;100028.00;;;;10384889;28;20708;-75
2023/01/19 08:06:23;;;;;;;34.53;13.40;;;;;0.30;100033.00;;;;10395103;28;20198;-74
2023/01/19 08:11:25;;;;;;;31.67;12.17;;;;;0.60;100036.00;;;;10388048;28;20281;-74
2023/01/19 08:16:27;;;;;;;24.67;12.93;;;;;0.70;100037.00;;;;10342619;28;20574;-74
2023/01/19 08:21:29;;;;;;;31.13;14.23;;;;;0.90;100039.00;;;;10376652;28;20230;-75
2023/01/19 08:26:33;;;;;;;29.53;13.87;;;;;0.90;100051.00;;;;10371874;28;20273;-75
2023/01/19 08:31:36;;;;;;;25.00;13.27;;;;;0.90;100063.00;;;;10370645;28;20187;-75
2023/01/19 08:36:38;;;;;;;30.37;13.23;;;;;0.90;100059.00;;;;10386524;28;20257;-74
2023/01/19 08:41:40;;;;;;;26.17;13.10;;;;;1.00;100074.00;;;;10368986;28;20207;-74
2023/01/19 08:46:42;;;;;;;29.90;13.17;;;;;1.10;100081.00;;;;10380324;28;20210;-75
2023/01/19 08:51:47;;;;;;;41.03;16.57;;;;;1.20;100094.00;;;;10383655;28;20196;-75
2023/01/19 08:56:49;;;;;;;31.50;14.17;;;;;1.20;100103.00;;;;10369857;28;20226;-75
2023/01/19 09:01:51;;;;;;;32.00;14.10;;;;;1.40;100104.00;;;;10351071;28;20242;-75
2023/01/19 09:06:53;;;;;;;29.30;13.07;;;;;1.70;100107.00;;;;10367226;28;20874;-75
2023/01/19 09:11:55;;;;;;;27.83;13.63;;;;;2.00;100115.00;;;;10399369;28;20222;-75
2023/01/19 09:16:58;;;;;;;26.43;14.43;;;;;2.30;100118.00;;;;10367246;28;20195;-75
2023/01/19 09:22:00;;;;;;;40.00;15.43;;;;;2.00;100116.00;;;;10367545;28;20219;-75
2023/01/19 09:27:02;;;;;;;36.23;15.67;;;;;2.60;100123.00;;;;10383182;28;20289;-75
2023/01/19 09:32:04;;;;;;;36.67;13.73;;;;;3.40;100119.00;;;;10351730;28;20202;-76
2023/01/19 09:37:07;;;;;;;35.10;15.20;;;;;3.20;100117.00;;;;10375995;28;20821;-76
2023/01/19 09:42:18;;;;;;;33.50;15.63;;;;;3.20;100119.00;;;;10340083;28;20219;-76
2023/01/19 09:47:29;;;;;;;34.63;15.10;;;;;3.30;100121.00;;;;10368299;28;20183;-76
2023/01/19 09:52:36;;;;;;;35.93;13.73;;;;;3.10;100133.00;;;;10381273;28;20202;-76
2023/01/19 09:57:38;;;;;;;29.53;12.30;;;;;3.10;100124.00;;;;10383017;28;20210;-75
2023/01/19 10:02:49;;;;;;;35.43;13.90;;;;;2.90;100119.00;;;;10347184;28;20712;-75
2023/01/19 10:08:10;;;;;;;31.90;13.20;;;;;3.40;100124.00;;;;10379032;28;20709;-75
2023/01/19 10:13:42;;;;;;;25.60;13.30;;;;;4.00;100143.00;;;;10342491;28;20226;-75
2023/01/19 10:18:47;;;;;;;28.03;12.33;;;;;3.70;100141.00;;;;10329632;28;20832;-75
2023/01/19 10:23:55;;;;;;;31.60;12.33;;;;;3.60;100127.00;;;;10390479;28;20217;-76
2023/01/19 10:29:06;;;;;;;28.47;12.00;;;;;3.50;100140.00;;;;10352397;28;21012;-75
2023/01/19 10:34:17;;;;;;;32.47;12.90;;;;;3.50;100136.00;;;;10359904;28;20183;-74
2023/01/19 10:39:27;;;;;;;27.23;12.07;;;;;3.70;100162.00;;;;10336348;28;20320;-75
2023/01/19 10:44:36;;;;;;;30.60;12.63;;;;;3.60;100150.00;;;;10367229;28;20310;-75
2023/01/19 10:49:41;;;;;;;29.37;12.77;;;;;3.50;100146.00;;;;10406025;28;20273;-75
2023/01/19 10:54:43;;;;;;;36.47;12.87;;;;;3.50;100156.00;;;;10374434;28;20234;-75
2023/01/19 10:59:51;;;;;;;25.27;11.60;;;;;3.50;100153.00;;;;10349287;28;20219;-75
2023/01/19 11:05:23;;;;;;;26.23;10.87;;;;;3.50;100158.00;;;;10348475;28;20222;-75
2023/01/19 11:10:29;;;;;;;29.27;11.93;;;;;3.80;100152.00;;;;10379687;28;20307;-75
2023/01/19 11:15:35;;;;;;;27.47;11.83;;;;;3.90;100147.00;;;;10386196;28;20830;-75
2023/01/19 11:20:52;;;;;;;25.03;11.53;;;;;3.60;100147.00;;;;10404596;28;20225;-75
2023/01/19 11:25:57;;;;;;;23.63;10.17;;;;;3.70;100147.00;;;;10394959;28;20203;-75
2023/01/19 11:31:01;;;;;;;27.20;12.60;;;;;3.80;100147.00;;;;10364454;28;20212;-75
2023/01/19 11:36:06;;;;;;;27.70;10.97;;;;;3.90;100149.00;;;;10362021;28;20455;-75
2023/01/19 11:41:30;;;;;;;25.17;11.43;;;;;4.00;100148.00;;;;10407088;28;20701;-75
2023/01/19 11:46:34;;;;;;;25.83;11.47;;;;;4.00;100150.00;;;;10388529;28;20232;-75
2023/01/19 11:51:49;;;;;;;27.23;12.47;;;;;3.90;100154.00;;;;10397924;28;20244;-75
2023/01/19 11:56:53;;;;;;;21.97;9.23;;;;;4.10;100154.00;;;;10351645;28;20210;-74
2023/01/19 12:01:58;;;;;;;27.33;13.67;;;;;4.10;100153.00;;;;10357314;28;20285;-75
2023/01/19 12:07:06;;;;;;;26.30;12.47;;;;;4.10;100146.00;;;;10325404;28;20204;-74
2023/01/19 12:12:39;;;;;;;35.07;14.53;;;;;4.00;100133.00;;;;10392194;28;20225;-74
2023/01/19 12:17:46;;;;;;;24.37;12.37;;;;;4.20;100134.00;;;;10367461;28;20529;-75
2023/01/19 12:23:12;;;;;;;24.10;11.67;;;;;4.40;100135.00;;;;10386158;28;20227;-75
2023/01/19 12:28:17;;;;;;;28.47;12.60;;;;;4.80;100133.00;;;;10363631;28;20721;-75
2023/01/19 12:33:25;;;;;;;26.80;12.87;;;;;5.10;100132.00;;;;10372816;28;20210;-74
2023/01/19 12:38:33;;;;;;;25.77;12.13;;;;;4.90;100125.00;;;;10378276;28;20289;-75
2023/01/19 12:43:35;;;;;;;23.97;12.20;;;;;5.00;100118.00;;;;10383237;28;20258;-75
2023/01/19 12:48:38;;;;;;;18.53;11.27;;;;;4.90;100120.00;;;;10370400;28;20191;-74
2023/01/19 12:53:53;;;;;;;22.40;12.13;;;;;5.20;100115.00;;;;10387838;28;20190;-74
2023/01/19 12:58:55;;;;;;;20.87;11.83;;;;;5.70;100108.00;;;;10370220;28;20221;-75
2023/01/19 13:04:02;;;;;;;26.50;13.53;;;;;6.60;100096.00;;;;10366874;28;20701;-75
2023/01/19 13:09:37;;;;;;;30.87;14.20;;;;;7.30;100096.00;;;;10389129;28;20685;-75
2023/01/19 13:14:41;;;;;;;33.10;15.30;;;;;7.60;100094.00;;;;10344002;28;20237;-75
2023/01/19 13:19:52;;;;;;;20.43;11.73;;;;;7.10;100104.00;;;;10357369;28;20202;-75
2023/01/19 13:25:07;;;;;;;19.90;11.30;;;;;6.10;100111.00;;;;10370287;28;20261;-75
2023/01/19 13:30:16;;;;;;;22.40;11.27;;;;;5.40;100121.00;;;;10400446;28;20670;-74
2023/01/19 13:35:19;;;;;;;23.53;11.80;;;;;4.90;100121.00;;;;10369904;28;20230;-74
2023/01/19 13:40:26;;;;;;;23.47;12.00;;;;;4.60;100116.00;;;;10338333;28;20203;-74
2023/01/19 13:45:34;;;;;;;16.47;10.90;;;;;4.50;100122.00;;;;10366920;28;20282;-74
2023/01/19 13:50:38;;;;;;;18.80;10.77;;;;;4.20;100124.00;;;;10355863;28;20212;-75
2023/01/19 13:55:40;;;;;;;23.37;10.93;;;;;4.10;100118.00;;;;10350479;28;20214;-74
2023/01/19 14:00:44;;;;;;;19.10;10.27;;;;;4.20;100119.00;;;;10358425;28;20203;-74
2023/01/19 14:05:50;;;;;;;18.17;10.13;;;;;4.20;100117.00;;;;10347849;28;20222;-74
2023/01/19 14:10:52;;;;;;;24.20;10.90;;;;;4.00;100113.00;;;;10384696;28;20218;-75
2023/01/19 14:16:16;;;;;;;17.37;9.70;;;;;3.80;100120.00;;;;10353531;28;20589;-74
2023/01/19 14:21:18;;;;;;;20.30;10.07;;;;;3.80;100122.00;;;;10382012;28;20203;-74
2023/01/19 14:26:36;;;;;;;18.40;9.97;;;;;3.90;100121.00;;;;10380136;28;20197;-74
2023/01/19 14:31:48;;;;;;;17.77;10.27;;;;;4.00;100122.00;;;;10377704;28;20234;-74
2023/01/19 14:36:50;;;;;;;18.73;9.77;;;;;4.00;100120.00;;;;10390883;28;20190;-74
2023/01/19 14:41:55;;;;;;;22.07;10.10;;;;;3.90;100133.00;;;;10360031;28;20256;-74
2023/01/19 14:46:58;;;;;;;15.13;8.67;;;;;3.80;100127.00;;;;10373700;28;20204;-74
2023/01/19 14:52:20;;;;;;;20.23;9.00;;;;;3.70;100140.00;;;;10386221;28;20536;-74
2023/01/19 14:57:22;;;;;;;14.77;6.90;;;;;3.80;100138.00;;;;10375211;28;20210;-74
2023/01/19 15:02:24;;;;;;;20.37;9.73;;;;;3.90;100136.00;;;;10360970;28;20217;-74
2023/01/19 15:07:27;;;;;;;18.90;9.07;;;;;3.80;100139.00;;;;10405413;28;20391;-74
2023/01/19 15:12:29;;;;;;;17.83;8.80;;;;;3.50;100141.00;;;;10386597;28;20227;-74
2023/01/19 15:17:31;;;;;;;17.83;7.97;;;;;3.30;100150.00;;;;10345364;28;20212;-74
2023/01/19 15:22:33;;;;;;;16.60;8.53;;;;;3.10;100145.00;;;;10348823;28;20216;-74
2023/01/19 15:27:35;;;;;;;15.00;8.70;;;;;2.90;100153.00;;;;10393958;28;20226;-75
2023/01/19 15:32:42;;;;;;;15.00;8.23;;;;;2.80;100151.00;;;;10373451;28;20888;-74
2023/01/19 15:37:44;;;;;;;18.47;9.13;;;;;2.60;100163.00;;;;10405788;28;20281;-74
2023/01/19 15:42:46;;;;;;;16.70;9.07;;;;;2.40;100159.00;;;;10350328;28;20215;-74
2023/01/19 15:47:48;;;;;;;18.60;9.30;;;;;2.30;100156.00;;;;10380021;28;20411;-74
2023/01/19 15:52:50;;;;;;;22.13;10.80;;;;;2.10;100160.00;;;;10373348;28;20382;-74
2023/01/19 15:57:52;;;;;;;18.30;10.07;;;;;2.00;100176.00;;;;10353972;28;20852;-74
2023/01/19 16:02:54;;;;;;;23.23;10.40;;;;;1.80;100180.00;;;;10350080;28;21029;-73
2023/01/19 16:07:57;;;;;;;16.20;8.77;;;;;1.70;100182.00;;;;10381890;28;20207;-74
2023/01/19 16:13:00;;;;;;;15.60;8.93;;;;;1.70;100207.00;;;;10381613;28;20357;-73
2023/01/19 16:18:03;;;;;;;20.03;9.13;;;;;1.50;100200.00;;;;10365130;28;20250;-74
2023/01/19 16:23:05;;;;;;;21.50;9.23;;;;;1.30;100206.00;;;;10383585;28;20549;-74
2023/01/19 16:28:15;;;;;;;17.00;7.77;;;;;1.30;100197.00;;;;10370505;28;20209;-74
2023/01/19 16:33:18;;;;;;;14.63;8.70;;;;;1.20;100206.00;;;;10381714;28;20202;-74
2023/01/19 16:38:22;;;;;;;18.80;8.77;;;;;1.20;100202.00;;;;10383778;28;20203;-74
2023/01/19 16:43:23;;;;;;;18.23;8.30;;;;;1.10;100212.00;;;;10371989;28;20219;-74
2023/01/19 16:48:31;;;;;;;15.70;8.57;;;;;1.00;100223.00;;;;10365967;28;20206;-74
2023/01/19 16:53:34;;;;;;;19.80;8.80;;;;;0.90;100231.00;;;;10375987;28;20733;-73
2023/01/19 16:58:37;;;;;;;18.80;10.17;;;;;0.80;100229.00;;;;10350394;28;20204;-74
2023/01/19 17:03:39;;;;;;;23.10;9.70;;;;;0.80;100230.00;;;;10362031;28;20220;-74
2023/01/19 17:08:41;;;;;;;19.73;10.10;;;;;0.70;100230.00;;;;10357016;28;20195;-74
2023/01/19 17:13:44;;;;;;;19.47;9.80;;;;;0.70;100236.00;;;;10359765;28;20716;-74
2023/01/19 17:18:46;;;;;;;19.70;8.80;;;;;0.60;100229.00;;;;10344248;28;20807;-73
2023/01/19 17:23:50;;;;;;;18.20;8.23;;;;;0.50;100238.00;;;;10387519;28;20214;-74
2023/01/19 17:29:04;;;;;;;24.03;9.20;;;;;0.60;100228.00;;;;10425930;28;20201;-73
2023/01/19 17:34:07;;;;;;;18.27;9.37;;;;;0.70;100240.00;;;;10380754;28;20213;-73
2023/01/19 17:39:24;;;;;;;18.03;8.53;;;;;0.70;100256.00;;;;10307757;28;20330;-74
2023/01/19 17:44:26;;;;;;;19.87;8.90;;;;;0.70;100267.00;;;;10357875;28;20959;-74
2023/01/19 17:49:28;;;;;;;14.47;8.13;;;;;0.70;100279.00;;;;10404646;28;20917;-74
2023/01/19 17:54:30;;;;;;;18.57;8.77;;;;;0.80;100276.00;;;;10353701;28;20685;-74
2023/01/19 17:59:32;;;;;;;18.23;8.93;;;;;0.90;100294.00;;;;10386300;28;20206;-74
2023/01/19 18:04:37;;;;;;;21.43;10.43;;;;;1.00;100285.00;;;;10366314;28;20396;-74
2023/01/19 18:09:39;;;;;;;20.47;10.93;;;;;1.10;100293.00;;;;10385098;28;20203;-74
2023/01/19 18:14:41;;;;;;;25.83;10.60;;;;;1.20;100277.00;;;;10389779;28;20210;-74
2023/01/19 18:19:43;;;;;;;25.03;11.50;;;;;1.20;100280.00;;;;10351211;28;20195;-74
2023/01/19 18:24:45;;;;;;;21.47;10.20;;;;;1.10;100271.00;;;;10383773;28;20238;-74
2023/01/19 18:29:47;;;;;;;23.73;9.97;;;;;1.00;100267.00;;;;10368949;28;20195;-74
2023/01/19 18:34:52;;;;;;;20.13;9.60;;;;;0.90;100276.00;;;;10382882;28;20658;-74
2023/01/19 18:39:58;;;;;;;24.07;11.17;;;;;0.80;100267.00;;;;10347105;28;20955;-74
2023/01/19 18:45:00;;;;;;;20.47;9.57;;;;;0.70;100264.00;;;;10355572;28;20219;-74
2023/01/19 18:50:03;;;;;;;25.60;11.50;;;;;0.50;100264.00;;;;10312262;28;20211;-74
2023/01/19 18:55:05;;;;;;;22.40;11.63;;;;;0.40;100272.00;;;;10344065;28;20207;-74
2023/01/19 19:00:08;;;;;;;22.53;10.47;;;;;0.40;100269.00;;;;10344339;28;20246;-74
2023/01/19 19:05:10;;;;;;;22.20;9.83;;;;;0.40;100268.00;;;;10327666;28;20235;-74
2023/01/19 19:10:12;;;;;;;23.60;11.67;;;;;0.30;100278.00;;;;10334950;28;20203;-74
2023/01/19 19:15:14;;;;;;;23.17;11.30;;;;;0.30;100277.00;;;;10368238;28;20229;-74
2023/01/19 19:20:16;;;;;;;26.07;11.03;;;;;0.20;100285.00;;;;10365603;28;20253;-74
2023/01/19 19:25:18;;;;;;;27.20;12.30;;;;;0.20;100297.00;;;;10375144;28;20310;-74
2023/01/19 19:30:20;;;;;;;25.47;11.40;;;;;0.20;100300.00;;;;10381418;28;20200;-74
2023/01/19 19:35:23;;;;;;;25.53;10.60;;;;;0.20;100300.00;;;;10380405;28;20798;-74
2023/01/19 19:40:26;;;;;;;24.50;11.67;;;;;0.20;100316.00;;;;10318205;28;20217;-74
2023/01/19 19:45:29;;;;;;;24.37;12.97;;;;;0.10;100320.00;;;;10356350;28;20222;-74
2023/01/19 19:50:33;;;;;;;23.23;11.60;;;;;0.00;100321.00;;;;10377318;28;20206;-74
2023/01/19 19:55:35;;;;;;;22.67;11.00;;;;;0.00;100325.00;;;;10338507;28;20238;-74
2023/01/19 20:00:37;;;;;;;25.07;12.73;;;;;0.10;100322.00;;;;10374396;28;20213;-74
2023/01/19 20:05:40;;;;;;;22.17;12.70;;;;;0.10;100338.00;;;;10361983;28;20229;-74
2023/01/19 20:10:42;;;;;;;26.80;11.43;;;;;0.10;100335.00;;;;10365149;28;20202;-74
2023/01/19 20:15:44;;;;;;;30.60;12.23;;;;;0.10;100349.00;;;;10353692;28;20297;-74
2023/01/19 20:20:46;;;;;;;25.90;12.40;;;;;0.00;100361.00;;;;10388620;28;20249;-74
2023/01/19 20:25:47;;;;;;;29.83;13.30;;;;;-0.10;100367.00;;;;10382441;28;20225;-74
2023/01/19 20:30:50;;;;;;;24.53;13.63;;;;;-0.20;100367.00;;;;10318275;28;20231;-74
2023/01/19 20:35:52;;;;;;;34.77;14.67;;;;;-0.20;100365.00;;;;10389661;28;20191;-74
2023/01/19 20:40:53;;;;;;;32.37;13.63;;;;;-0.10;100372.00;;;;10372920;28;20222;-74
2023/01/19 20:45:56;;;;;;;32.90;15.30;;;;;0.00;100377.00;;;;10385729;28;20294;-74
2023/01/19 20:51:09;;;;;;;34.60;14.77;;;;;0.30;100391.00;;;;10347582;28;20223;-74
2023/01/19 20:56:13;;;;;;;27.20;12.00;;;;;0.40;100399.00;;;;10347808;28;20192;-74
2023/01/19 21:01:16;;;;;;;31.43;14.07;;;;;0.40;100407.00;;;;10347705;28;20246;-74
2023/01/19 21:06:20;;;;;;;33.47;15.07;;;;;0.40;100414.00;;;;10362979;28;20214;-74
2023/01/19 21:11:22;;;;;;;32.20;14.53;;;;;0.40;100433.00;;;;10404423;28;20234;-74
2023/01/19 21:16:27;;;;;;;35.13;14.90;;;;;0.60;100433.00;;;;10350672;28;20333;-74
2023/01/19 21:21:29;;;;;;;36.47;14.93;;;;;0.70;100446.00;;;;10367887;28;20246;-74
2023/01/19 21:26:32;;;;;;;31.40;13.03;;;;;0.70;100461.00;;;;10393019;28;20255;-74
2023/01/19 21:31:34;;;;;;;36.40;16.20;;;;;0.70;100460.00;;;;10354992;28;20198;-74
2023/01/19 21:36:36;;;;;;;39.03;15.90;;;;;0.60;100462.00;;;;10365314;28;20210;-74
2023/01/19 21:41:41;;;;;;;36.67;15.43;;;;;0.50;100476.00;;;;10361497;28;20221;-74
2023/01/19 21:46:43;;;;;;;36.93;15.53;;;;;0.60;100486.00;;;;10366621;28;20255;-74
2023/01/19 21:51:45;;;;;;;37.97;16.33;;;;;0.60;100492.00;;;;10345860;28;20234;-74
2023/01/19 21:56:49;;;;;;;40.47;14.97;;;;;0.70;100487.00;;;;10345558;28;20262;-74
2023/01/19 22:01:50;;;;;;;37.53;15.70;;;;;0.70;100492.00;;;;10368252;28;20193;-74
2023/01/19 22:06:52;;;;;;;37.47;15.23;;;;;0.70;100500.00;;;;10346453;28;20247;-74
2023/01/19 22:11:54;;;;;;;39.23;15.50;;;;;0.70;100500.00;;;;10345734;28;20226;-74
2023/01/19 22:16:56;;;;;;;39.53;16.90;;;;;0.70;100504.00;;;;10378290;28;20219;-74
2023/01/19 22:21:58;;;;;;;31.03;15.53;;;;;0.60;100507.00;;;;10379281;28;20229;-74
2023/01/19 22:27:00;;;;;;;36.27;12.63;;;;;0.70;100520.00;;;;10394025;28;20222;-74
2023/01/19 22:32:02;;;;;;;32.10;13.00;;;;;0.70;100526.00;;;;10381873;28;20298;-74
2023/01/19 22:37:05;;;;;;;27.93;13.37;;;;;0.70;100533.00;;;;10358291;28;20219;-74
2023/01/19 22:42:07;;;;;;;27.97;13.83;;;;;0.70;100533.00;;;;10371717;28;20885;-74
2023/01/19 22:47:09;;;;;;;38.63;14.60;;;;;0.70;100539.00;;;;10408480;28;20226;-74
2023/01/19 22:52:10;;;;;;;29.07;13.23;;;;;0.80;100536.00;;;;10336312;28;20557;-74
2023/01/19 22:57:12;;;;;;;36.13;15.33;;;;;0.80;100537.00;;;;10351881;28;20879;-74
2023/01/19 23:02:14;;;;;;;31.00;14.63;;;;;0.80;100532.00;;;;10386136;28;20282;-74
2023/01/19 23:07:16;;;;;;;38.80;13.47;;;;;0.80;100537.00;;;;10352125;28;20651;-74
2023/01/19 23:12:18;;;;;;;34.50;13.27;;;;;0.70;100544.00;;;;10375755;28;20223;-74
2023/01/19 23:17:20;;;;;;;31.23;13.03;;;;;0.70;100541.00;;;;10410081;28;20281;-74
2023/01/19 23:22:22;;;;;;;30.47;12.03;;;;;0.70;100541.00;;;;10433602;28;20277;-74
2023/01/19 23:27:24;;;;;;;27.27;12.33;;;;;0.60;100526.00;;;;10417363;28;20290;-73
2023/01/19 23:32:26;;;;;;;26.47;11.70;;;;;0.60;100543.00;;;;10377848;28;20665;-73
2023/01/19 23:37:28;;;;;;;26.87;12.70;;;;;0.60;100544.00;;;;10375688;28;20261;-73
2023/01/19 23:42:29;;;;;;;24.43;11.20;;;;;0.60;100544.00;;;;10375263;28;20206;-73
2023/01/19 23:47:35;;;;;;;26.60;11.33;;;;;0.60;100546.00;;;;10385660;28;20282;-74
2023/01/19 23:52:37;;;;;;;29.63;11.63;;;;;0.60;100550.00;;;;10374776;28;20689;-74
2023/01/19 23:57:39;;;;;;;24.23;11.07;;;;;0.60;100552.00;;;;10357589;28;20866;-74
